Hooper Bay, AK

1:11 PM AKDT on September 25, 2016 (GMT -0800)
Chevak | | Change Station

Elev 75 ft 61.54 °N, 165.60 °W | Updated 15 minutes ago

Overcast
Overcast
46 °F
Feels Like 38 °F
N
20
Wind Variable Wind from South

Today
High -- | Low -- °F
--% Chance of Precip.
Yesterday
High -- | Low -- °F
Precip. -- in
Pressure 29.86 in
Visibility 10.0 miles
Clouds Few 1800 ft
Mostly Cloudy 3400 ft
Overcast 5000 ft
Windchill 38 °F
Dew Point 43 °F
Humidity 89%
Rainfall 0.00 in
Snow Depth Not available.
8:55 AM 8:50 PM
Waning Crescent, 25% visible
METAR PAVA 252056Z AUTO 17017KT 10SM FEW018 BKN034 OVC050 08/06 A2982 RMK AO2 RAE48 SLP111 6//// T00780061 56008 PNO $
Pressure 29.86 in
Visibility 10.0 miles
Clouds Few 1800 ft
Mostly Cloudy 3400 ft
Overcast 5000 ft
Windchill 38 °F
Dew Point 43 °F
Humidity 89%
Rainfall 0.00 in
Snow Depth Not available.
8:55 AM 8:50 PM
Waning Crescent, 25% visible
METAR PAVA 252056Z AUTO 17017KT 10SM FEW018 BKN034 OVC050 08/06 A2982 RMK AO2 RAE48 SLP111 6//// T00780061 56008 PNO $

10-Day Weather Forecast

Almanac

Astronomy

Sep. 25, 2016 Rise Set
Actual Time
Civil Twilight
Nautical Twilight
Astronomical Twilight
Moon
Length of Visible Light
Length of Day
Tomorrow will be .
, % of the Moon is Illuminated

Today's Extremes

State Highs State Lows

Community

WunderPhotos

Upload Photos

1,941,732 photos uploaded!

WunderBlog® & News

Nearby

Air Quality

  Air Quality AQ Index Pollutant
Not available.

Snow Depth

Station Depth Elevation

Earthquake Activity

City Distance Mag. Time & Date
Minimum magnitude displayed is 2.5.

Coastal Water Temperatures

Place Temperature

Stations

Nearby Weather Stations

Station Location Temp. Windchill Dew Point Humidity Wind Precip. Elev Updated Type
                   

Watches & Warnings

There are currently no watches in effect.